• Join FlightAware (Why Join?)
  • Login
  • US Flag 
07:17PM EDT


 

Airport Tracker/Info


-or-


 

Live Flight TrackerFlight Track Log ✈ GJS3649 ✈ 03-Aug-2014 ✈ KDEN - KMSP

Flight Track Log - Related Links

Times and Time Zones

All times are in EDT time to prevent confusion due to time zone crossing. See the GJS3649 flight status page for this flight to view local times or setup timezone preferences in your user account.

Time Position Orientation Groundspeed Altitude Reporting Facility
EDT Latitude Longitude Course Direction KTS MPH feet Rate Location/Type
10:41AM 39.8167 -104.6333 79° East 181 208 6,600  Level Denver TRACON
10:42AM 39.7833 -104.6000 142° Southeast 214 246 8,400 1,800 Climbing Denver TRACON
10:43AM 39.7481 -104.5678 145° Southeast 219 252 9,300 1,920 Climbing Denver Center
10:44AM 39.6892 -104.5117 144° Southeast 242 278 11,600 1,800 Climbing Denver Center
10:45AM 39.6881 -104.4200 91° East 273 314 13,100 1,500 Climbing Denver Center
10:46AM 39.7383 -104.3225 56° Northeast 305 351 14,700 1,500 Climbing Denver Center
10:47AM 39.9998 -103.8179 79° East  Level FlightAware Approximate
10:47AM 39.7875 -104.2272 56° Northeast 320 368 16,200  Level Denver Center
10:48AM 39.8481 -104.1089 56° Northeast 363 418 17,300 840 Climbing Denver Center
10:49AM 39.9094 -103.9892 56° Northeast 396 456 18,000 840 Climbing Denver Center
10:50AM 39.9778 -103.8533 57° Northeast 420 483 19,100 960 Climbing Denver Center
10:51AM 40.0283 -103.7158 64° Northeast 408 470 20,100 960 Climbing Denver Center
10:52AM 40.0561 -103.5614 77° East 437 503 21,100 960 Climbing Denver Center
10:53AM 40.0819 -103.4039 78° East 441 507 22,100 960 Climbing Denver Center
10:54AM 40.1069 -103.2450 78° East 445 512 23,100 960 Climbing Denver Center
10:55AM 40.1325 -103.0836 78° East 452 520 24,100 1,020 Climbing Denver Center
10:56AM 40.1633 -102.8878 78° East 459 528 25,300 1,020 Climbing Denver Center
10:57AM 40.1889 -102.7250 78° East 459 528 26,300 960 Climbing Denver Center
10:58AM 40.2133 -102.5642 79° East 462 532 27,300 960 Climbing Denver Center
10:59AM 40.2408 -102.3789 79° East 464 534 28,400 960 Climbing Denver Center
11:00AM 40.2658 -102.2203 78° East 465 535 29,400 960 Climbing Denver Center
11:01AM 40.2928 -102.0333 79° East 466 536 30,500 960 Climbing Denver Center
11:02AM 40.3181 -101.8742 78° East 467 537 31,500 960 Climbing Denver Center
11:03AM 40.3447 -101.6861 79° East 468 539 32,600 960 Climbing Denver Center
11:04AM 40.3672 -101.5261 79° East 471 542 33,600 960 Climbing Denver Center
11:05AM 40.3981 -101.3417 78° East 469 540 34,700 660 Climbing Denver Center
11:06AM 40.4319 -101.1883 74° East 463 533 35,000 120 Climbing Denver Center
11:07AM 40.4703 -101.0003 75° East 477 549 35,000  Level Denver Center
11:08AM 40.5044 -100.8328 75° East 498 573 35,000 240 Level Denver Center
11:10AM 40.5439 -100.6372 75° East 501 577 35,500 720 Climbing Denver Center
11:11AM 40.5764 -100.4736 75° East 491 565 36,500 720 Climbing Denver Center
11:12AM 40.6147 -100.2853 75° East 483 556 37,000 240 Climbing Denver Center
11:13AM 40.6467 -100.1208 76° East 485 558 37,000  Level Denver Center
11:14AM 40.6842 -99.9261 76° East 490 564 37,000  Level Denver Center
11:15AM 40.7172 -99.7581 75° East 492 566 37,000  Level Denver Center
11:16AM 40.7500 -99.5864 76° East 489 563 37,000  Level Denver Center
11:17AM 40.7822 -99.4158 76° East 482 555 37,000  Level Denver Center
11:18AM 40.8203 -99.2125 76° East 481 554 37,000  Level Denver Center
11:19AM 40.8497 -99.0503 76° East 481 554 37,000  Level Denver Center
11:20AM 40.8856 -98.8583 76° East 481 554 37,000  Level Denver Center
11:21AM 40.9139 -98.7000 77° East 482 555 37,000  Level Denver Center
11:22AM 40.9456 -98.5289 76° East 484 557 37,000  Level Denver Center
11:23AM 40.9844 -98.3258 76° East 483 556 37,000  Level Minneapolis Center
11:24AM 41.0564 -98.1464 62° Northeast 465 535 37,000  Level Minneapolis Center
11:25AM 41.1200 -98.0003 60° Northeast 463 533 37,000  Level Minneapolis Center
11:26AM 41.1842 -97.8547 60° Northeast 462 532 37,000  Level Minneapolis Center
11:27AM 41.2458 -97.7094 61° Northeast 459 528 37,000 -540 Level Minneapolis Center
11:28AM 41.3081 -97.5633 60° Northeast 458 527 36,000 -1,020 Descending Minneapolis Center
11:29AM 41.3694 -97.4189 60° Northeast 457 526 35,000 -540 Descending Minneapolis Center
11:30AM 41.4397 -97.2481 61° Northeast 446 513 35,000  Level Minneapolis Center
11:31AM 41.4986 -97.1069 61° Northeast 441 507 35,000  Level Minneapolis Center
11:32AM 41.5572 -96.9628 61° Northeast 441 507 35,000  Level Minneapolis Center
11:33AM 41.6194 -96.8142 61° Northeast 445 512 35,000  Level Minneapolis Center
11:35AM 41.6811 -96.6631 61° Northeast 455 524 35,000  Level Minneapolis Center
11:36AM 41.7428 -96.5133 61° Northeast 456 525 35,000  Level Minneapolis Center
11:38AM 41.8783 -96.1794 61° Northeast 461 531 35,000  Level Minneapolis Center
11:39AM 41.9372 -96.0308 62° Northeast 454 522 35,000  Level Minneapolis Center
11:40AM 41.9961 -95.8853 61° Northeast 446 513 35,000  Level Minneapolis Center
11:41AM 42.0533 -95.7389 62° Northeast 444 511 35,000  Level Minneapolis Center
11:42AM 42.1117 -95.5928 62° Northeast 443 510 35,000  Level Minneapolis Center
11:43AM 42.1697 -95.4433 62° Northeast 444 511 35,000  Level Minneapolis Center
11:44AM 42.2281 -95.2964 62° Northeast 445 512 35,000 -540 Level Minneapolis Center
11:45AM 42.2981 -95.1178 62° Northeast 446 513 34,000 -1,020 Descending Minneapolis Center
11:46AM 42.3544 -94.9706 63° Northeast 446 513 33,000 -540 Descending Minneapolis Center
11:47AM 42.4125 -94.8203 62° Northeast 446 513 33,000  Level Minneapolis Center
11:48AM 42.4714 -94.6675 62° Northeast 453 521 33,000  Level Minneapolis Center
11:49AM 42.5344 -94.5036 62° Northeast 460 529 33,000  Level Minneapolis Center
11:50AM 42.5942 -94.3489 62° Northeast 466 536 33,000  Level Minneapolis Center
11:51AM 42.6772 -94.2217 48° Northeast 457 526 33,000  Level Minneapolis Center
11:52AM 42.7958 -94.0972 38° Northeast 455 524 33,000  Level Minneapolis Center
11:53AM 42.8903 -93.9900 40° Northeast 449 517 33,000 -60 Level Minneapolis Center
11:54AM 42.9881 -93.8839 38° Northeast 449 517 32,900 -780 Descending Minneapolis Center
11:55AM 43.0850 -93.7756 39° Northeast 453 521 31,400 -1,440 Descending Minneapolis Center
11:56AM 43.1814 -93.6675 39° Northeast 453 521 29,900 -1,620 Descending Minneapolis Center
11:57AM 43.2986 -93.5556 35° Northeast 444 511 28,100 -1,740 Descending Minneapolis Center
11:58AM 43.4139 -93.5419 North 428 493 26,400 -1,920 Descending Minneapolis Center
11:59AM 43.5275 -93.5308 North 418 481 24,200 -2,280 Descending Minneapolis Center
12:00PM 43.6475 -93.5186 North 410 472 21,800 -2,280 Descending Minneapolis Center
12:01PM 43.7569 -93.5097 North 400 460 19,600 -2,040 Descending Minneapolis Center
12:02PM 43.8656 -93.4978 North 397 457 17,600 -2,040 Descending Minneapolis Center
12:03PM 43.9722 -93.4881 North 387 445 15,400 -2,400 Descending Minneapolis Center
12:05PM 44.0961 -93.4769 North 373 429 12,700 -2,100 Descending Minneapolis Center
12:06PM 44.1983 -93.4675 North 370 426 11,100 -840 Descending Minneapolis Center
12:07PM 44.2906 -93.4206 20° North 355 409 11,000 -60 Descending Minneapolis Center
12:08PM 44.3761 -93.3625 26° Northeast 346 398 11,000 -540 Level Minneapolis Center
12:09PM 44.4497 -93.3158 24° Northeast 289 333 9,900 -1,260 Descending Minneapolis Center
12:10PM 44.5181 -93.2711 25° Northeast 276 318 8,400 -1,800 Descending Minneapolis Center
12:11PM 44.5989 -93.2183 25° Northeast 269 310 6,200 -1,980 Descending Minneapolis Center
12:12PM 44.6686 -93.1867 18° North 265 305 4,400 -1,380 Descending Minneapolis Center
12:13PM 44.7372 -93.2028 351° North 255 293 3,400 -1,020 Descending Minneapolis Center
12:14PM 44.7936 -93.2175 350° North 185 213 2,300 -900 Descending Minneapolis Center
12:15PM 44.8317 -93.2275 349° North 149 171 1,600 -720 Descending Minneapolis Center
12:17PM 44.8667 -93.2167 North  Level FlightAware Approximate
12:24PM 44.8820 -93.2218 North  Level Estimated